sensor_id;sensor_type;location;lat;lon;timestamp;P1;durP1;ratioP1;P2;durP2;ratioP2
7289;SDS011;63176;52.678;13.250;2023-02-03T00:01:20;2.20;;;1.40;;
7289;SDS011;63176;52.678;13.250;2023-02-03T00:03:47;5.15;;;2.15;;
7289;SDS011;63176;52.678;13.250;2023-02-03T00:06:13;4.55;;;1.80;;
7289;SDS011;63176;52.678;13.250;2023-02-03T00:08:39;2.33;;;1.40;;
7289;SDS011;63176;52.678;13.250;2023-02-03T00:11:05;2.67;;;1.33;;
7289;SDS011;63176;52.678;13.250;2023-02-03T00:13:31;5.30;;;1.50;;
7289;SDS011;63176;52.678;13.250;2023-02-03T00:15:59;2.35;;;1.48;;
7289;SDS011;63176;52.678;13.250;2023-02-03T00:18:26;4.00;;;1.65;;
7289;SDS011;63176;52.678;13.250;2023-02-03T00:20:52;2.38;;;1.60;;
7289;SDS011;63176;52.678;13.250;2023-02-03T00:23:18;3.90;;;1.70;;
7289;SDS011;63176;52.678;13.250;2023-02-03T00:25:44;4.83;;;1.57;;
7289;SDS011;63176;52.678;13.250;2023-02-03T00:28:09;2.40;;;1.80;;
7289;SDS011;63176;52.678;13.250;2023-02-03T00:30:35;1.70;;;1.20;;
7289;SDS011;63176;52.678;13.250;2023-02-03T00:33:02;3.50;;;1.73;;
7289;SDS011;63176;52.678;13.250;2023-02-03T00:35:28;6.10;;;1.00;;
7289;SDS011;63176;52.678;13.250;2023-02-03T00:37:55;3.60;;;1.42;;
7289;SDS011;63176;52.678;13.250;2023-02-03T00:40:22;5.82;;;1.63;;
7289;SDS011;63176;52.678;13.250;2023-02-03T00:42:49;1.50;;;1.15;;
7289;SDS011;63176;52.678;13.250;2023-02-03T00:45:15;3.93;;;1.87;;
7289;SDS011;63176;52.678;13.250;2023-02-03T00:47:41;3.17;;;1.60;;
7289;SDS011;63176;52.678;13.250;2023-02-03T00:50:07;4.90;;;1.60;;
7289;SDS011;63176;52.678;13.250;2023-02-03T00:52:33;10.52;;;2.30;;
7289;SDS011;63176;52.678;13.250;2023-02-03T00:54:59;8.00;;;1.80;;
7289;SDS011;63176;52.678;13.250;2023-02-03T00:57:24;6.90;;;1.83;;
7289;SDS011;63176;52.678;13.250;2023-02-03T00:59:50;5.57;;;2.10;;
7289;SDS011;63176;52.678;13.250;2023-02-03T01:02:16;4.10;;;2.70;;
7289;SDS011;63176;52.678;13.250;2023-02-03T01:04:42;6.83;;;1.80;;
7289;SDS011;63176;52.678;13.250;2023-02-03T01:07:08;4.55;;;2.05;;
7289;SDS011;63176;52.678;13.250;2023-02-03T01:09:34;5.50;;;2.00;;
7289;SDS011;63176;52.678;13.250;2023-02-03T01:12:01;3.15;;;1.13;;
7289;SDS011;63176;52.678;13.250;2023-02-03T01:14:27;3.47;;;1.58;;
7289;SDS011;63176;52.678;13.250;2023-02-03T01:16:53;7.30;;;2.10;;
7289;SDS011;63176;52.678;13.250;2023-02-03T01:19:19;2.27;;;1.37;;
7289;SDS011;63176;52.678;13.250;2023-02-03T01:21:45;2.20;;;1.45;;
7289;SDS011;63176;52.678;13.250;2023-02-03T01:24:11;2.70;;;1.53;;
7289;SDS011;63176;52.678;13.250;2023-02-03T01:26:39;3.28;;;1.65;;
7289;SDS011;63176;52.678;13.250;2023-02-03T01:29:05;7.10;;;1.70;;
7289;SDS011;63176;52.678;13.250;2023-02-03T01:31:31;2.87;;;1.40;;
7289;SDS011;63176;52.678;13.250;2023-02-03T01:34:01;3.05;;;1.60;;
7289;SDS011;63176;52.678;13.250;2023-02-03T01:36:28;1.60;;;1.27;;
7289;SDS011;63176;52.678;13.250;2023-02-03T01:38:55;5.25;;;1.92;;
7289;SDS011;63176;52.678;13.250;2023-02-03T01:41:22;5.30;;;1.20;;
7289;SDS011;63176;52.678;13.250;2023-02-03T01:43:51;2.65;;;1.35;;
7289;SDS011;63176;52.678;13.250;2023-02-03T01:51:41;1.20;;;0.98;;
7289;SDS011;63176;52.678;13.250;2023-02-03T01:54:09;2.80;;;1.90;;
7289;SDS011;63176;52.678;13.250;2023-02-03T01:56:41;2.63;;;1.60;;
7289;SDS011;63176;52.678;13.250;2023-02-03T01:59:11;3.85;;;1.60;;
7289;SDS011;63176;52.678;13.250;2023-02-03T02:01:40;1.60;;;1.40;;
7289;SDS011;63176;52.678;13.250;2023-02-03T02:04:06;2.23;;;1.50;;
7289;SDS011;63176;52.678;13.250;2023-02-03T02:06:32;2.35;;;1.70;;
7289;SDS011;63176;52.678;13.250;2023-02-03T02:08:58;1.90;;;1.70;;
7289;SDS011;63176;52.678;13.250;2023-02-03T02:11:25;3.10;;;1.67;;
7289;SDS011;63176;52.678;13.250;2023-02-03T02:13:51;2.50;;;1.42;;
7289;SDS011;63176;52.678;13.250;2023-02-03T02:24:52;5.80;;;1.90;;
7289;SDS011;63176;52.678;13.250;2023-02-03T02:30:19;8.70;;;1.30;;
7289;SDS011;63176;52.678;13.250;2023-02-03T02:40:41;1.30;;;0.90;;
7289;SDS011;63176;52.678;13.250;2023-02-03T02:43:17;1.50;;;1.08;;
7289;SDS011;63176;52.678;13.250;2023-02-03T02:46:02;0.70;;;0.70;;
7289;SDS011;63176;52.678;13.250;2023-02-03T02:48:56;1.08;;;0.95;;
7289;SDS011;63176;52.678;13.250;2023-02-03T02:51:45;2.55;;;1.45;;
7289;SDS011;63176;52.678;13.250;2023-02-03T02:54:14;1.00;;;0.95;;
7289;SDS011;63176;52.678;13.250;2023-02-03T02:56:47;2.25;;;1.38;;
7289;SDS011;63176;52.678;13.250;2023-02-03T02:59:17;2.08;;;1.25;;
7289;SDS011;63176;52.678;13.250;2023-02-03T03:01:43;0.93;;;0.93;;
7289;SDS011;63176;52.678;13.250;2023-02-03T03:04:09;4.20;;;1.10;;
7289;SDS011;63176;52.678;13.250;2023-02-03T03:06:39;1.60;;;1.23;;
7289;SDS011;63176;52.678;13.250;2023-02-03T03:11:53;1.55;;;1.38;;
7289;SDS011;63176;52.678;13.250;2023-02-03T03:14:22;0.65;;;0.65;;
7289;SDS011;63176;52.678;13.250;2023-02-03T03:16:52;2.28;;;1.50;;
7289;SDS011;63176;52.678;13.250;2023-02-03T03:19:31;1.63;;;1.20;;
7289;SDS011;63176;52.678;13.250;2023-02-03T03:22:00;1.92;;;1.30;;
7289;SDS011;63176;52.678;13.250;2023-02-03T03:24:33;2.90;;;0.70;;
7289;SDS011;63176;52.678;13.250;2023-02-03T03:27:06;1.02;;;0.93;;
7289;SDS011;63176;52.678;13.250;2023-02-03T03:29:37;3.45;;;1.10;;
7289;SDS011;63176;52.678;13.250;2023-02-03T03:32:11;1.58;;;0.93;;
7289;SDS011;63176;52.678;13.250;2023-02-03T03:34:37;1.05;;;1.05;;
7289;SDS011;63176;52.678;13.250;2023-02-03T03:39:57;1.83;;;1.00;;
7289;SDS011;63176;52.678;13.250;2023-02-03T03:42:26;1.13;;;0.90;;
7289;SDS011;63176;52.678;13.250;2023-02-03T03:45:04;0.70;;;0.70;;
7289;SDS011;63176;52.678;13.250;2023-02-03T03:50:08;0.80;;;0.80;;
7289;SDS011;63176;52.678;13.250;2023-02-03T03:52:36;2.55;;;0.70;;
7289;SDS011;63176;52.678;13.250;2023-02-03T03:55:04;1.15;;;0.90;;
7289;SDS011;63176;52.678;13.250;2023-02-03T04:00:20;0.90;;;0.90;;
7289;SDS011;63176;52.678;13.250;2023-02-03T04:02:49;2.65;;;1.35;;
7289;SDS011;63176;52.678;13.250;2023-02-03T04:05:18;4.80;;;1.70;;
7289;SDS011;63176;52.678;13.250;2023-02-03T04:07:45;1.23;;;1.13;;
7289;SDS011;63176;52.678;13.250;2023-02-03T04:10:14;1.92;;;1.65;;
7289;SDS011;63176;52.678;13.250;2023-02-03T04:13:01;3.33;;;1.48;;
7289;SDS011;63176;52.678;13.250;2023-02-03T04:15:28;3.25;;;1.42;;
7289;SDS011;63176;52.678;13.250;2023-02-03T04:17:54;1.20;;;1.02;;
7289;SDS011;63176;52.678;13.250;2023-02-03T04:20:21;2.25;;;1.77;;
7289;SDS011;63176;52.678;13.250;2023-02-03T04:22:48;2.50;;;1.75;;
7289;SDS011;63176;52.678;13.250;2023-02-03T04:25:14;2.75;;;1.85;;
7289;SDS011;63176;52.678;13.250;2023-02-03T04:27:40;4.90;;;2.85;;
7289;SDS011;63176;52.678;13.250;2023-02-03T04:30:05;4.07;;;2.30;;
7289;SDS011;63176;52.678;13.250;2023-02-03T04:32:32;5.60;;;2.75;;
7289;SDS011;63176;52.678;13.250;2023-02-03T04:34:59;4.50;;;2.25;;
7289;SDS011;63176;52.678;13.250;2023-02-03T04:37:26;3.70;;;2.45;;
7289;SDS011;63176;52.678;13.250;2023-02-03T04:39:52;2.50;;;2.30;;
7289;SDS011;63176;52.678;13.250;2023-02-03T04:42:19;2.75;;;2.20;;
7289;SDS011;63176;52.678;13.250;2023-02-03T04:44:45;3.65;;;2.35;;
7289;SDS011;63176;52.678;13.250;2023-02-03T04:47:11;3.33;;;1.83;;
7289;SDS011;63176;52.678;13.250;2023-02-03T04:49:38;3.53;;;1.80;;
7289;SDS011;63176;52.678;13.250;2023-02-03T04:52:04;3.67;;;2.50;;
7289;SDS011;63176;52.678;13.250;2023-02-03T04:54:30;5.53;;;2.28;;
7289;SDS011;63176;52.678;13.250;2023-02-03T04:56:55;3.83;;;2.60;;
7289;SDS011;63176;52.678;13.250;2023-02-03T04:59:21;6.70;;;2.80;;
7289;SDS011;63176;52.678;13.250;2023-02-03T05:01:47;4.27;;;2.40;;
7289;SDS011;63176;52.678;13.250;2023-02-03T05:04:12;4.87;;;2.83;;
7289;SDS011;63176;52.678;13.250;2023-02-03T05:06:38;4.97;;;3.00;;
7289;SDS011;63176;52.678;13.250;2023-02-03T05:09:04;4.27;;;3.00;;
7289;SDS011;63176;52.678;13.250;2023-02-03T05:11:29;5.03;;;3.50;;
7289;SDS011;63176;52.678;13.250;2023-02-03T05:13:55;4.47;;;3.23;;
7289;SDS011;63176;52.678;13.250;2023-02-03T05:16:21;4.28;;;3.08;;
7289;SDS011;63176;52.678;13.250;2023-02-03T05:18:47;4.70;;;3.20;;
7289;SDS011;63176;52.678;13.250;2023-02-03T05:21:13;5.87;;;3.70;;
7289;SDS011;63176;52.678;13.250;2023-02-03T05:23:39;6.55;;;4.20;;
7289;SDS011;63176;52.678;13.250;2023-02-03T05:26:05;9.53;;;4.80;;
7289;SDS011;63176;52.678;13.250;2023-02-03T05:28:30;9.77;;;5.13;;
7289;SDS011;63176;52.678;13.250;2023-02-03T05:30:59;10.27;;;4.30;;
7289;SDS011;63176;52.678;13.250;2023-02-03T05:33:26;6.65;;;5.10;;
7289;SDS011;63176;52.678;13.250;2023-02-03T05:35:52;7.07;;;4.75;;
7289;SDS011;63176;52.678;13.250;2023-02-03T05:38:18;7.03;;;5.00;;
7289;SDS011;63176;52.678;13.250;2023-02-03T05:40:46;8.70;;;4.77;;
7289;SDS011;63176;52.678;13.250;2023-02-03T05:43:31;8.90;;;4.88;;
7289;SDS011;63176;52.678;13.250;2023-02-03T05:46:04;8.65;;;5.40;;
7289;SDS011;63176;52.678;13.250;2023-02-03T05:48:30;12.55;;;6.70;;
7289;SDS011;63176;52.678;13.250;2023-02-03T05:50:57;11.40;;;6.05;;
7289;SDS011;63176;52.678;13.250;2023-02-03T05:53:22;10.50;;;6.10;;
7289;SDS011;63176;52.678;13.250;2023-02-03T05:55:48;12.03;;;7.40;;
7289;SDS011;63176;52.678;13.250;2023-02-03T05:58:14;12.53;;;6.40;;
7289;SDS011;63176;52.678;13.250;2023-02-03T06:00:40;12.80;;;6.90;;
7289;SDS011;63176;52.678;13.250;2023-02-03T06:03:06;14.30;;;6.50;;
7289;SDS011;63176;52.678;13.250;2023-02-03T06:05:32;14.15;;;7.07;;
7289;SDS011;63176;52.678;13.250;2023-02-03T06:07:59;13.55;;;6.95;;
7289;SDS011;63176;52.678;13.250;2023-02-03T06:10:25;12.25;;;7.93;;
7289;SDS011;63176;52.678;13.250;2023-02-03T06:12:51;14.82;;;7.93;;
7289;SDS011;63176;52.678;13.250;2023-02-03T06:15:16;14.50;;;8.30;;
7289;SDS011;63176;52.678;13.250;2023-02-03T06:17:43;12.33;;;6.90;;
7289;SDS011;63176;52.678;13.250;2023-02-03T06:20:10;15.65;;;7.97;;
7289;SDS011;63176;52.678;13.250;2023-02-03T06:22:36;15.35;;;7.38;;
7289;SDS011;63176;52.678;13.250;2023-02-03T06:25:02;13.20;;;7.97;;
7289;SDS011;63176;52.678;13.250;2023-02-03T06:27:28;13.85;;;7.22;;
7289;SDS011;63176;52.678;13.250;2023-02-03T06:29:54;14.00;;;7.20;;
7289;SDS011;63176;52.678;13.250;2023-02-03T06:32:20;22.47;;;8.20;;
7289;SDS011;63176;52.678;13.250;2023-02-03T06:34:45;15.67;;;7.30;;
7289;SDS011;63176;52.678;13.250;2023-02-03T06:37:11;10.80;;;6.63;;
7289;SDS011;63176;52.678;13.250;2023-02-03T06:39:37;11.20;;;6.93;;
7289;SDS011;63176;52.678;13.250;2023-02-03T06:42:02;12.47;;;7.63;;
7289;SDS011;63176;52.678;13.250;2023-02-03T06:44:28;11.97;;;7.10;;
7289;SDS011;63176;52.678;13.250;2023-02-03T06:46:54;12.83;;;8.17;;
7289;SDS011;63176;52.678;13.250;2023-02-03T06:49:20;12.57;;;7.65;;
7289;SDS011;63176;52.678;13.250;2023-02-03T06:51:46;10.83;;;6.40;;
7289;SDS011;63176;52.678;13.250;2023-02-03T06:54:12;10.93;;;7.13;;
7289;SDS011;63176;52.678;13.250;2023-02-03T06:56:38;10.90;;;6.75;;
7289;SDS011;63176;52.678;13.250;2023-02-03T06:59:04;10.87;;;6.80;;
7289;SDS011;63176;52.678;13.250;2023-02-03T07:01:29;12.40;;;6.07;;
7289;SDS011;63176;52.678;13.250;2023-02-03T07:03:56;10.20;;;6.33;;
7289;SDS011;63176;52.678;13.250;2023-02-03T07:06:25;14.05;;;7.63;;
7289;SDS011;63176;52.678;13.250;2023-02-03T07:08:57;11.52;;;7.25;;
7289;SDS011;63176;52.678;13.250;2023-02-03T07:11:23;9.57;;;5.60;;
7289;SDS011;63176;52.678;13.250;2023-02-03T07:13:49;8.77;;;5.60;;
7289;SDS011;63176;52.678;13.250;2023-02-03T07:16:16;9.00;;;5.65;;
7289;SDS011;63176;52.678;13.250;2023-02-03T07:18:42;7.05;;;5.47;;
7289;SDS011;63176;52.678;13.250;2023-02-03T07:21:08;8.27;;;5.50;;
7289;SDS011;63176;52.678;13.250;2023-02-03T07:23:34;7.15;;;5.05;;
7289;SDS011;63176;52.678;13.250;2023-02-03T07:26:00;12.20;;;5.10;;
7289;SDS011;63176;52.678;13.250;2023-02-03T07:28:27;8.85;;;6.05;;
7289;SDS011;63176;52.678;13.250;2023-02-03T07:30:52;7.90;;;5.30;;
7289;SDS011;63176;52.678;13.250;2023-02-03T07:33:18;7.17;;;5.27;;
7289;SDS011;63176;52.678;13.250;2023-02-03T07:35:50;10.77;;;5.50;;
7289;SDS011;63176;52.678;13.250;2023-02-03T07:38:19;7.93;;;4.68;;
7289;SDS011;63176;52.678;13.250;2023-02-03T07:40:45;14.15;;;4.85;;
7289;SDS011;63176;52.678;13.250;2023-02-03T07:43:11;9.10;;;5.03;;
7289;SDS011;63176;52.678;13.250;2023-02-03T07:45:37;4.20;;;3.70;;
7289;SDS011;63176;52.678;13.250;2023-02-03T07:48:03;8.30;;;4.80;;
7289;SDS011;63176;52.678;13.250;2023-02-03T07:50:29;7.07;;;4.47;;
7289;SDS011;63176;52.678;13.250;2023-02-03T07:52:54;7.87;;;5.40;;
7289;SDS011;63176;52.678;13.250;2023-02-03T07:55:21;7.53;;;4.43;;
7289;SDS011;63176;52.678;13.250;2023-02-03T07:57:46;6.05;;;4.20;;
7289;SDS011;63176;52.678;13.250;2023-02-03T08:00:14;6.30;;;4.07;;
7289;SDS011;63176;52.678;13.250;2023-02-03T08:02:41;5.53;;;4.45;;
7289;SDS011;63176;52.678;13.250;2023-02-03T08:05:08;7.80;;;4.55;;
7289;SDS011;63176;52.678;13.250;2023-02-03T08:07:34;5.68;;;3.92;;
7289;SDS011;63176;52.678;13.250;2023-02-03T08:10:00;6.30;;;4.27;;
7289;SDS011;63176;52.678;13.250;2023-02-03T08:12:25;5.17;;;3.83;;
7289;SDS011;63176;52.678;13.250;2023-02-03T08:14:51;7.00;;;4.03;;
7289;SDS011;63176;52.678;13.250;2023-02-03T08:17:17;7.53;;;3.90;;
7289;SDS011;63176;52.678;13.250;2023-02-03T08:19:43;5.17;;;3.23;;
7289;SDS011;63176;52.678;13.250;2023-02-03T08:22:08;5.60;;;3.90;;
7289;SDS011;63176;52.678;13.250;2023-02-03T08:24:43;5.50;;;3.40;;
7289;SDS011;63176;52.678;13.250;2023-02-03T08:27:28;5.22;;;3.40;;
7289;SDS011;63176;52.678;13.250;2023-02-03T08:29:55;4.28;;;3.42;;
7289;SDS011;63176;52.678;13.250;2023-02-03T08:32:21;5.00;;;2.77;;
7289;SDS011;63176;52.678;13.250;2023-02-03T08:34:47;4.40;;;3.03;;
7289;SDS011;63176;52.678;13.250;2023-02-03T08:37:14;10.38;;;4.00;;
7289;SDS011;63176;52.678;13.250;2023-02-03T08:39:41;3.22;;;2.92;;
7289;SDS011;63176;52.678;13.250;2023-02-03T08:42:07;5.18;;;3.22;;
7289;SDS011;63176;52.678;13.250;2023-02-03T08:44:34;3.22;;;2.92;;
7289;SDS011;63176;52.678;13.250;2023-02-03T08:47:00;5.55;;;3.22;;
7289;SDS011;63176;52.678;13.250;2023-02-03T08:49:27;5.60;;;3.23;;
7289;SDS011;63176;52.678;13.250;2023-02-03T08:51:56;4.15;;;2.80;;
7289;SDS011;63176;52.678;13.250;2023-02-03T08:54:22;4.80;;;3.20;;
7289;SDS011;63176;52.678;13.250;2023-02-03T08:56:49;5.50;;;3.08;;
7289;SDS011;63176;52.678;13.250;2023-02-03T08:59:15;3.53;;;3.15;;
7289;SDS011;63176;52.678;13.250;2023-02-03T09:01:41;5.40;;;2.90;;
7289;SDS011;63176;52.678;13.250;2023-02-03T09:04:14;3.65;;;2.80;;
7289;SDS011;63176;52.678;13.250;2023-02-03T09:06:43;2.80;;;2.35;;
7289;SDS011;63176;52.678;13.250;2023-02-03T09:09:11;2.80;;;2.50;;
7289;SDS011;63176;52.678;13.250;2023-02-03T09:11:39;4.70;;;2.20;;
7289;SDS011;63176;52.678;13.250;2023-02-03T09:14:06;2.70;;;2.42;;
7289;SDS011;63176;52.678;13.250;2023-02-03T09:16:32;3.65;;;2.50;;
7289;SDS011;63176;52.678;13.250;2023-02-03T09:18:58;3.42;;;2.75;;
7289;SDS011;63176;52.678;13.250;2023-02-03T09:21:24;2.90;;;2.50;;
7289;SDS011;63176;52.678;13.250;2023-02-03T09:23:49;4.30;;;2.80;;
7289;SDS011;63176;52.678;13.250;2023-02-03T09:26:15;2.80;;;2.17;;
7289;SDS011;63176;52.678;13.250;2023-02-03T09:28:41;3.80;;;1.95;;
7289;SDS011;63176;52.678;13.250;2023-02-03T09:31:09;1.83;;;1.73;;
7289;SDS011;63176;52.678;13.250;2023-02-03T09:33:38;3.63;;;2.10;;
7289;SDS011;63176;52.678;13.250;2023-02-03T09:36:05;1.90;;;1.70;;
7289;SDS011;63176;52.678;13.250;2023-02-03T09:38:32;2.08;;;1.88;;
7289;SDS011;63176;52.678;13.250;2023-02-03T09:49:14;2.65;;;1.40;;
7289;SDS011;63176;52.678;13.250;2023-02-03T09:51:58;4.40;;;1.60;;
7289;SDS011;63176;52.678;13.250;2023-02-03T09:54:47;1.40;;;1.30;;
7289;SDS011;63176;52.678;13.250;2023-02-03T09:57:18;3.00;;;1.50;;
7289;SDS011;63176;52.678;13.250;2023-02-03T09:59:46;3.17;;;1.92;;
7289;SDS011;63176;52.678;13.250;2023-02-03T10:02:17;1.50;;;1.40;;
7289;SDS011;63176;52.678;13.250;2023-02-03T10:04:55;1.88;;;1.20;;
7289;SDS011;63176;52.678;13.250;2023-02-03T10:07:38;1.20;;;1.10;;
7289;SDS011;63176;52.678;13.250;2023-02-03T10:10:16;1.35;;;1.13;;
7289;SDS011;63176;52.678;13.250;2023-02-03T10:18:06;1.80;;;1.23;;
7289;SDS011;63176;52.678;13.250;2023-02-03T10:20:47;1.20;;;1.00;;
7289;SDS011;63176;52.678;13.250;2023-02-03T10:23:34;1.40;;;1.27;;
7289;SDS011;63176;52.678;13.250;2023-02-03T10:26:25;0.60;;;0.60;;
7289;SDS011;63176;52.678;13.250;2023-02-03T10:28:53;0.60;;;0.60;;
7289;SDS011;63176;52.678;13.250;2023-02-03T10:31:27;2.08;;;0.70;;
7289;SDS011;63176;52.678;13.250;2023-02-03T10:34:00;0.40;;;0.40;;
7289;SDS011;63176;52.678;13.250;2023-02-03T10:41:54;2.40;;;0.70;;
7289;SDS011;63176;52.678;13.250;2023-02-03T10:44:20;3.42;;;0.85;;
7289;SDS011;63176;52.678;13.250;2023-02-03T10:46:59;2.10;;;0.70;;
7289;SDS011;63176;52.678;13.250;2023-02-03T10:49:25;4.63;;;0.57;;
7289;SDS011;63176;52.678;13.250;2023-02-03T10:51:53;1.27;;;0.80;;
7289;SDS011;63176;52.678;13.250;2023-02-03T10:54:29;2.55;;;0.68;;
7289;SDS011;63176;52.678;13.250;2023-02-03T10:57:02;4.55;;;1.40;;
7289;SDS011;63176;52.678;13.250;2023-02-03T10:59:33;6.45;;;0.90;;
7289;SDS011;63176;52.678;13.250;2023-02-03T11:02:06;6.20;;;1.70;;
7289;SDS011;63176;52.678;13.250;2023-02-03T11:04:33;2.33;;;0.80;;
7289;SDS011;63176;52.678;13.250;2023-02-03T11:07:00;2.97;;;0.93;;
7289;SDS011;63176;52.678;13.250;2023-02-03T11:12:12;4.57;;;0.85;;
7289;SDS011;63176;52.678;13.250;2023-02-03T11:14:40;5.70;;;1.40;;
7289;SDS011;63176;52.678;13.250;2023-02-03T11:17:13;5.78;;;1.00;;
7289;SDS011;63176;52.678;13.250;2023-02-03T11:19:47;5.20;;;1.35;;
7289;SDS011;63176;52.678;13.250;2023-02-03T11:25:01;6.65;;;0.88;;
7289;SDS011;63176;52.678;13.250;2023-02-03T11:27:30;4.75;;;1.05;;
7289;SDS011;63176;52.678;13.250;2023-02-03T11:30:12;2.97;;;0.88;;
7289;SDS011;63176;52.678;13.250;2023-02-03T11:32:47;4.60;;;0.95;;
7289;SDS011;63176;52.678;13.250;2023-02-03T11:38:02;10.05;;;1.52;;
7289;SDS011;63176;52.678;13.250;2023-02-03T11:40:28;10.93;;;1.40;;
7289;SDS011;63176;52.678;13.250;2023-02-03T11:42:59;12.52;;;1.60;;
7289;SDS011;63176;52.678;13.250;2023-02-03T11:45:49;7.75;;;1.80;;
7289;SDS011;63176;52.678;13.250;2023-02-03T12:04:14;11.63;;;1.75;;
7289;SDS011;63176;52.678;13.250;2023-02-03T12:09:56;17.17;;;2.20;;
7289;SDS011;63176;52.678;13.250;2023-02-03T12:21:03;13.15;;;1.98;;
7289;SDS011;63176;52.678;13.250;2023-02-03T12:23:53;8.68;;;2.80;;
7289;SDS011;63176;52.678;13.250;2023-02-03T12:26:36;5.28;;;1.90;;
7289;SDS011;63176;52.678;13.250;2023-02-03T12:29:12;9.93;;;2.25;;
7289;SDS011;63176;52.678;13.250;2023-02-03T12:32:28;9.60;;;2.10;;
7289;SDS011;63176;52.678;13.250;2023-02-03T12:34:41;6.45;;;1.52;;
7289;SDS011;63176;52.678;13.250;2023-02-03T12:37:29;9.30;;;2.70;;
7289;SDS011;63176;52.678;13.250;2023-02-03T12:40:26;8.50;;;2.15;;
7289;SDS011;63176;52.678;13.250;2023-02-03T12:43:17;6.05;;;0.88;;
7289;SDS011;63176;52.678;13.250;2023-02-03T12:46:16;1.95;;;0.75;;
7289;SDS011;63176;52.678;13.250;2023-02-03T12:51:35;3.25;;;0.98;;
7289;SDS011;63176;52.678;13.250;2023-02-03T12:54:20;1.80;;;0.73;;
7289;SDS011;63176;52.678;13.250;2023-02-03T12:56:59;5.50;;;1.75;;
7289;SDS011;63176;52.678;13.250;2023-02-03T12:59:34;3.05;;;1.15;;
7289;SDS011;63176;52.678;13.250;2023-02-03T13:02:10;3.20;;;0.85;;
7289;SDS011;63176;52.678;13.250;2023-02-03T13:04:50;2.47;;;0.75;;
7289;SDS011;63176;52.678;13.250;2023-02-03T13:07:23;5.10;;;1.17;;
7289;SDS011;63176;52.678;13.250;2023-02-03T13:10:15;8.40;;;0.95;;
7289;SDS011;63176;52.678;13.250;2023-02-03T13:12:49;5.10;;;1.25;;
7289;SDS011;63176;52.678;13.250;2023-02-03T13:17:58;9.77;;;0.80;;
7289;SDS011;63176;52.678;13.250;2023-02-03T13:20:39;6.03;;;0.80;;
7289;SDS011;63176;52.678;13.250;2023-02-03T13:23:06;7.40;;;1.57;;
7289;SDS011;63176;52.678;13.250;2023-02-03T13:34:17;7.05;;;1.15;;
7289;SDS011;63176;52.678;13.250;2023-02-03T13:42:35;4.20;;;1.35;;
7289;SDS011;63176;52.678;13.250;2023-02-03T13:45:27;6.50;;;1.90;;
7289;SDS011;63176;52.678;13.250;2023-02-03T13:47:55;7.65;;;1.50;;
7289;SDS011;63176;52.678;13.250;2023-02-03T13:50:40;3.75;;;1.20;;
7289;SDS011;63176;52.678;13.250;2023-02-03T13:53:22;3.90;;;1.02;;
7289;SDS011;63176;52.678;13.250;2023-02-03T13:56:00;8.52;;;1.98;;
7289;SDS011;63176;52.678;13.250;2023-02-03T13:58:31;11.43;;;1.90;;
7289;SDS011;63176;52.678;13.250;2023-02-03T14:01:06;5.65;;;1.75;;
7289;SDS011;63176;52.678;13.250;2023-02-03T14:03:52;5.60;;;1.40;;
7289;SDS011;63176;52.678;13.250;2023-02-03T14:09:17;8.75;;;1.38;;
7289;SDS011;63176;52.678;13.250;2023-02-03T14:14:57;8.70;;;1.85;;
7289;SDS011;63176;52.678;13.250;2023-02-03T14:20:53;2.85;;;1.75;;
7289;SDS011;63176;52.678;13.250;2023-02-03T14:25:19;7.75;;;2.38;;
7289;SDS011;63176;52.678;13.250;2023-02-03T14:27:46;15.00;;;2.22;;
7289;SDS011;63176;52.678;13.250;2023-02-03T14:30:22;8.63;;;1.90;;
7289;SDS011;63176;52.678;13.250;2023-02-03T14:38:16;11.25;;;1.80;;
7289;SDS011;63176;52.678;13.250;2023-02-03T14:41:00;9.65;;;2.33;;
7289;SDS011;63176;52.678;13.250;2023-02-03T14:48:50;14.02;;;2.03;;
7289;SDS011;63176;52.678;13.250;2023-02-03T15:02:16;4.82;;;1.23;;
7289;SDS011;63176;52.678;13.250;2023-02-03T15:04:49;14.75;;;2.25;;
7289;SDS011;63176;52.678;13.250;2023-02-03T15:07:35;8.13;;;1.98;;
7289;SDS011;63176;52.678;13.250;2023-02-03T15:10:09;15.00;;;1.85;;
7289;SDS011;63176;52.678;13.250;2023-02-03T15:12:45;7.72;;;1.90;;
7289;SDS011;63176;52.678;13.250;2023-02-03T15:17:42;13.10;;;1.92;;
7289;SDS011;63176;52.678;13.250;2023-02-03T15:20:44;8.63;;;3.27;;
7289;SDS011;63176;52.678;13.250;2023-02-03T15:23:19;12.95;;;2.40;;
7289;SDS011;63176;52.678;13.250;2023-02-03T15:25:46;12.13;;;1.33;;
7289;SDS011;63176;52.678;13.250;2023-02-03T15:28:19;13.10;;;3.17;;
7289;SDS011;63176;52.678;13.250;2023-02-03T15:30:46;15.15;;;2.00;;
7289;SDS011;63176;52.678;13.250;2023-02-03T15:33:25;12.18;;;2.38;;
7289;SDS011;63176;52.678;13.250;2023-02-03T15:35:57;14.80;;;2.40;;
7289;SDS011;63176;52.678;13.250;2023-02-03T15:38:34;8.63;;;2.15;;
7289;SDS011;63176;52.678;13.250;2023-02-03T15:41:05;7.93;;;1.95;;
7289;SDS011;63176;52.678;13.250;2023-02-03T15:43:36;14.45;;;1.88;;
7289;SDS011;63176;52.678;13.250;2023-02-03T15:46:05;8.13;;;1.65;;
7289;SDS011;63176;52.678;13.250;2023-02-03T15:54:10;9.15;;;1.60;;
7289;SDS011;63176;52.678;13.250;2023-02-03T15:56:42;8.80;;;1.88;;
7289;SDS011;63176;52.678;13.250;2023-02-03T15:59:25;13.93;;;2.35;;
7289;SDS011;63176;52.678;13.250;2023-02-03T16:02:01;10.10;;;1.85;;
7289;SDS011;63176;52.678;13.250;2023-02-03T16:04:51;12.70;;;2.08;;
7289;SDS011;63176;52.678;13.250;2023-02-03T16:07:19;10.57;;;2.00;;
7289;SDS011;63176;52.678;13.250;2023-02-03T16:09:51;13.60;;;2.63;;
7289;SDS011;63176;52.678;13.250;2023-02-03T16:12:31;5.85;;;1.48;;
7289;SDS011;63176;52.678;13.250;2023-02-03T16:14:58;11.70;;;1.60;;
7289;SDS011;63176;52.678;13.250;2023-02-03T16:22:38;7.53;;;2.03;;
7289;SDS011;63176;52.678;13.250;2023-02-03T16:25:24;5.45;;;2.05;;
7289;SDS011;63176;52.678;13.250;2023-02-03T16:30:58;12.77;;;2.25;;
7289;SDS011;63176;52.678;13.250;2023-02-03T16:33:45;5.78;;;1.65;;
7289;SDS011;63176;52.678;13.250;2023-02-03T16:36:31;10.73;;;2.50;;
7289;SDS011;63176;52.678;13.250;2023-02-03T16:39:15;7.35;;;2.15;;
7289;SDS011;63176;52.678;13.250;2023-02-03T16:42:00;9.55;;;2.25;;
7289;SDS011;63176;52.678;13.250;2023-02-03T16:45:00;13.00;;;1.95;;
7289;SDS011;63176;52.678;13.250;2023-02-03T16:47:45;11.90;;;2.10;;
7289;SDS011;63176;52.678;13.250;2023-02-03T16:50:29;10.35;;;2.33;;
7289;SDS011;63176;52.678;13.250;2023-02-03T16:53:15;7.03;;;1.90;;
7289;SDS011;63176;52.678;13.250;2023-02-03T16:55:44;7.55;;;2.13;;
7289;SDS011;63176;52.678;13.250;2023-02-03T16:58:11;16.75;;;2.60;;
7289;SDS011;63176;52.678;13.250;2023-02-03T17:00:40;17.27;;;2.40;;
7289;SDS011;63176;52.678;13.250;2023-02-03T17:03:11;18.88;;;2.92;;
7289;SDS011;63176;52.678;13.250;2023-02-03T17:05:39;13.13;;;2.00;;
7289;SDS011;63176;52.678;13.250;2023-02-03T17:08:06;10.50;;;2.35;;
7289;SDS011;63176;52.678;13.250;2023-02-03T17:10:33;13.05;;;1.92;;
7289;SDS011;63176;52.678;13.250;2023-02-03T17:12:59;18.00;;;2.70;;
7289;SDS011;63176;52.678;13.250;2023-02-03T17:15:25;10.53;;;2.07;;
7289;SDS011;63176;52.678;13.250;2023-02-03T17:17:51;6.30;;;1.07;;
7289;SDS011;63176;52.678;13.250;2023-02-03T17:20:17;10.50;;;2.67;;
7289;SDS011;63176;52.678;13.250;2023-02-03T17:22:43;9.15;;;2.38;;
7289;SDS011;63176;52.678;13.250;2023-02-03T17:25:09;10.57;;;2.00;;
7289;SDS011;63176;52.678;13.250;2023-02-03T17:27:34;9.43;;;2.77;;
7289;SDS011;63176;52.678;13.250;2023-02-03T17:30:00;16.83;;;2.33;;
7289;SDS011;63176;52.678;13.250;2023-02-03T17:32:26;9.07;;;2.43;;
7289;SDS011;63176;52.678;13.250;2023-02-03T17:34:52;15.60;;;2.13;;
7289;SDS011;63176;52.678;13.250;2023-02-03T17:37:17;12.10;;;2.40;;
7289;SDS011;63176;52.678;13.250;2023-02-03T17:39:43;5.80;;;2.00;;
7289;SDS011;63176;52.678;13.250;2023-02-03T17:42:09;5.90;;;1.63;;
7289;SDS011;63176;52.678;13.250;2023-02-03T17:44:34;14.67;;;2.07;;